createdAt,value
2018-11-04T00:00:17.681Z,56.13
2018-11-04T00:02:47.210Z,53.50
2018-11-04T00:05:16.590Z,50.23
2018-11-04T00:07:46.649Z,54.53
2018-11-04T00:10:15.577Z,54.17
2018-11-04T00:12:44.573Z,59.23
2018-11-04T00:15:13.538Z,55.63
2018-11-04T00:17:42.481Z,53.97
2018-11-04T00:20:13.035Z,60.73
2018-11-04T00:22:42.102Z,54.90
2018-11-04T00:25:12.730Z,62.97
2018-11-04T00:27:41.914Z,51.40
2018-11-04T00:30:15.315Z,53.93
2018-11-04T00:32:44.626Z,68.60
2018-11-04T00:35:13.738Z,57.30
2018-11-04T00:37:42.840Z,59.30
2018-11-04T00:40:11.868Z,69.40
2018-11-04T00:42:41.159Z,53.60
2018-11-04T00:45:10.471Z,57.77
2018-11-04T00:47:39.976Z,57.57
2018-11-04T00:50:11.449Z,55.57
2018-11-04T00:52:40.616Z,56.93
2018-11-04T00:55:10.374Z,51.60
2018-11-04T00:57:39.496Z,68.83
2018-11-04T01:00:13.571Z,59.03
2018-11-04T01:02:43.190Z,52.40
2018-11-04T01:05:12.176Z,53.63
2018-11-04T01:07:41.127Z,58.50
2018-11-04T01:10:11.052Z,59.00
2018-11-04T01:12:40.552Z,56.43
2018-11-04T01:15:10.982Z,64.27
2018-11-04T01:17:40.270Z,59.83
2018-11-04T01:20:11.611Z,55.80
2018-11-04T01:22:40.722Z,55.63
2018-11-04T01:25:10.134Z,62.33
2018-11-04T01:27:39.309Z,51.20
2018-11-04T01:30:10.516Z,54.33
2018-11-04T01:32:39.462Z,56.87
2018-11-04T01:35:08.766Z,51.37
2018-11-04T01:37:37.969Z,58.57
2018-11-04T01:40:07.825Z,61.10
2018-11-04T01:42:37.158Z,51.30
2018-11-04T01:45:07.235Z,54.57
2018-11-04T01:47:36.557Z,60.13
2018-11-04T01:50:07.648Z,58.23
2018-11-04T01:52:36.939Z,59.47
2018-11-04T01:55:06.697Z,62.40
2018-11-04T01:57:36.031Z,51.00
2018-11-04T02:00:07.319Z,71.33
2018-11-04T02:02:36.285Z,67.53
2018-11-04T02:05:06.123Z,55.10
2018-11-04T02:07:35.223Z,67.53
2018-11-04T02:10:04.359Z,70.07
2018-11-04T02:12:33.309Z,63.77
2018-11-04T02:15:02.298Z,58.50
2018-11-04T02:17:31.314Z,61.73
2018-11-04T02:20:00.497Z,60.10
2018-11-04T02:22:29.588Z,57.60
2018-11-04T02:24:58.700Z,58.13
2018-11-04T02:27:27.810Z,58.97
2018-11-04T02:29:57.290Z,54.33
2018-11-04T02:32:26.254Z,59.53
2018-11-04T02:34:55.252Z,52.40
2018-11-04T02:37:24.259Z,67.20
2018-11-04T02:39:53.226Z,66.80
2018-11-04T02:42:22.222Z,59.47
2018-11-04T02:44:51.230Z,67.73
2018-11-04T02:47:20.225Z,54.80
2018-11-04T02:49:49.218Z,62.33
2018-11-04T02:52:18.416Z,54.13
2018-11-04T02:54:47.420Z,76.00
2018-11-04T02:57:16.438Z,60.17
2018-11-04T02:59:45.408Z,61.90
2018-11-04T03:02:14.406Z,67.50
2018-11-04T03:04:43.418Z,60.83
2018-11-04T03:07:12.626Z,57.40
2018-11-04T03:09:41.775Z,68.10
2018-11-04T03:12:10.782Z,67.00
2018-11-04T03:14:39.791Z,59.57
2018-11-04T03:17:08.793Z,61.17
2018-11-04T03:19:37.866Z,66.67
2018-11-04T03:22:07.258Z,64.93
2018-11-04T03:24:36.282Z,66.00
2018-11-04T03:27:05.245Z,57.27
2018-11-04T03:29:34.234Z,66.27
2018-11-04T03:32:04.261Z,64.60
2018-11-04T03:34:33.301Z,64.63
2018-11-04T03:37:02.468Z,55.10
2018-11-04T03:39:31.435Z,56.53
2018-11-04T03:42:00.416Z,54.93
2018-11-04T03:44:29.367Z,57.07
2018-11-04T03:46:58.361Z,58.73
2018-11-04T03:49:27.370Z,64.77
2018-11-04T03:51:56.475Z,53.90
2018-11-04T03:54:25.601Z,56.77
2018-11-04T03:56:54.614Z,65.40
2018-11-04T03:59:23.627Z,56.53
2018-11-04T04:01:52.807Z,56.60
2018-11-04T04:04:21.804Z,63.87
2018-11-04T04:06:50.773Z,62.57
2018-11-04T04:09:20.109Z,67.67
2018-11-04T04:11:49.067Z,57.40
2018-11-04T04:14:18.000Z,73.13
2018-11-04T04:16:47.078Z,66.33
2018-11-04T04:19:16.166Z,62.03
2018-11-04T04:21:45.135Z,69.43
2018-11-04T04:24:14.132Z,61.93
2018-11-04T04:26:43.077Z,63.07
2018-11-04T04:29:12.153Z,72.07
2018-11-04T04:31:41.117Z,61.83
2018-11-04T04:34:10.149Z,64.10
2018-11-04T04:36:39.095Z,66.27
2018-11-04T04:39:08.945Z,57.40
2018-11-04T04:41:38.050Z,63.10
2018-11-04T04:44:07.466Z,61.70
2018-11-04T04:46:36.534Z,57.00
2018-11-04T04:49:05.577Z,55.60
2018-11-04T04:51:34.769Z,74.13
2018-11-04T04:54:03.939Z,59.20
2018-11-04T04:56:33.061Z,56.53
2018-11-04T04:59:02.015Z,60.90
2018-11-04T05:01:30.977Z,53.23
2018-11-04T05:03:59.916Z,56.70
2018-11-04T05:06:28.867Z,49.97
2018-11-04T05:08:57.893Z,56.23
2018-11-04T05:11:26.858Z,58.20
2018-11-04T05:13:55.837Z,55.37
2018-11-04T05:16:24.877Z,56.83
2018-11-04T05:18:53.865Z,53.43
2018-11-04T05:21:22.809Z,58.23
2018-11-04T05:23:51.896Z,62.80
2018-11-04T05:26:21.001Z,55.23
2018-11-04T05:28:50.100Z,60.30
2018-11-04T05:31:19.113Z,61.63
2018-11-04T05:33:48.113Z,53.87
2018-11-04T05:36:17.111Z,61.87
2018-11-04T05:38:46.139Z,65.17
2018-11-04T05:41:15.120Z,60.50
2018-11-04T05:43:44.047Z,68.20
2018-11-04T05:46:13.418Z,61.47
2018-11-04T05:48:42.362Z,60.13
2018-11-04T05:51:11.621Z,61.90
2018-11-04T05:53:41.333Z,65.23
2018-11-04T05:56:10.705Z,62.13
2018-11-04T05:58:39.691Z,53.53
2018-11-04T06:01:08.657Z,75.07
2018-11-04T06:03:37.606Z,68.30
2018-11-04T06:06:06.685Z,63.10
2018-11-04T06:08:35.626Z,67.77
2018-11-04T06:11:04.626Z,71.43
2018-11-04T06:13:33.649Z,66.20
2018-11-04T06:16:02.606Z,68.73
2018-11-04T06:18:31.534Z,62.57
2018-11-04T06:21:00.505Z,65.47
2018-11-04T06:23:29.462Z,60.13
2018-11-04T06:25:58.450Z,72.80
2018-11-04T06:28:27.397Z,80.63
2018-11-04T06:30:56.410Z,72.63
2018-11-04T06:33:25.422Z,75.77
2018-11-04T06:35:54.396Z,67.50
2018-11-04T06:38:23.382Z,72.10
2018-11-04T06:40:52.369Z,69.73
2018-11-04T06:43:21.305Z,86.73
2018-11-04T06:45:50.265Z,70.60
2018-11-04T06:48:19.247Z,77.90
2018-11-04T06:50:48.250Z,83.30
2018-11-04T06:53:17.225Z,75.70
2018-11-04T06:55:46.187Z,78.07
2018-11-04T06:58:15.119Z,80.30
2018-11-04T07:00:44.120Z,76.80
2018-11-04T07:03:13.114Z,67.97
2018-11-04T07:05:42.051Z,75.60
2018-11-04T07:08:11.014Z,72.67
2018-11-04T07:10:39.959Z,85.57
2018-11-04T07:13:09.076Z,94.23
2018-11-04T07:15:38.058Z,91.90
2018-11-04T07:18:07.053Z,87.90
2018-11-04T07:20:36.117Z,92.30
2018-11-04T07:23:05.712Z,89.20
2018-11-04T07:25:34.723Z,102.97
2018-11-04T07:28:04.885Z,94.77
2018-11-04T07:30:33.939Z,96.57
2018-11-04T07:33:03.130Z,95.10
2018-11-04T07:35:32.213Z,87.33
2018-11-04T07:38:01.371Z,81.33
2018-11-04T07:40:30.373Z,84.57
2018-11-04T07:42:59.337Z,94.23
2018-11-04T07:45:28.394Z,99.67
2018-11-04T07:47:57.372Z,106.70
2018-11-04T07:50:26.402Z,104.50
2018-11-04T07:52:55.347Z,110.57
2018-11-04T07:55:24.617Z,103.70
2018-11-04T07:57:54.674Z,93.83
2018-11-04T08:00:24.726Z,97.40
2018-11-04T08:02:53.816Z,108.33
2018-11-04T08:05:23.000Z,94.40
2018-11-04T08:07:51.970Z,91.73
2018-11-04T08:10:20.996Z,91.57
2018-11-04T08:12:50.010Z,91.57
2018-11-04T08:15:18.922Z,85.83
2018-11-04T08:17:49.091Z,93.03
2018-11-04T08:20:18.066Z,92.80
2018-11-04T08:22:47.533Z,84.60
2018-11-04T08:25:16.731Z,79.60
2018-11-04T08:27:45.994Z,82.73
2018-11-04T08:30:15.979Z,72.90
2018-11-04T08:32:45.154Z,81.83
2018-11-04T08:35:15.069Z,88.03
2018-11-04T08:37:44.457Z,83.40
2018-11-04T08:40:13.600Z,79.47
2018-11-04T08:42:42.499Z,83.77
2018-11-04T08:45:11.476Z,72.20
2018-11-04T08:47:40.469Z,81.50
2018-11-04T08:50:10.046Z,76.83
2018-11-04T08:52:39.368Z,75.03
2018-11-04T08:55:09.367Z,73.60
2018-11-04T08:57:38.628Z,75.47
2018-11-04T09:00:09.532Z,65.97
2018-11-04T09:02:38.626Z,66.87
2018-11-04T09:05:09.054Z,72.17
2018-11-04T09:07:38.411Z,68.77
2018-11-04T09:10:10.706Z,69.83
2018-11-04T09:12:39.781Z,72.60
2018-11-04T09:15:10.001Z,63.03
2018-11-04T09:17:39.072Z,60.67
2018-11-04T09:20:10.427Z,64.20
2018-11-04T09:22:39.783Z,61.50
2018-11-04T09:25:10.218Z,65.40
2018-11-04T09:27:39.228Z,64.37
2018-11-04T09:30:11.224Z,67.47
2018-11-04T09:32:40.300Z,68.77
2018-11-04T09:35:10.317Z,75.43
2018-11-04T09:37:38.977Z,63.63
2018-11-04T09:40:09.329Z,63.07
2018-11-04T09:42:38.297Z,61.97
2018-11-04T09:45:07.669Z,67.47
2018-11-04T09:47:36.751Z,61.03
2018-11-04T09:50:07.360Z,58.10
2018-11-04T09:52:36.234Z,68.17
2018-11-04T09:55:05.995Z,68.57
2018-11-04T09:57:35.036Z,61.90
2018-11-04T10:00:04.058Z,60.67
2018-11-04T10:02:33.059Z,62.47
2018-11-04T10:05:02.385Z,61.80
2018-11-04T10:07:31.522Z,57.83
2018-11-04T10:10:00.481Z,57.83
2018-11-04T10:12:29.452Z,57.20
2018-11-04T10:14:58.594Z,54.87
2018-11-04T10:17:27.939Z,57.27
2018-11-04T10:19:57.310Z,69.57
2018-11-04T10:22:26.009Z,54.93
2018-11-04T10:24:54.974Z,63.43
2018-11-04T10:27:23.997Z,55.30
2018-11-04T10:29:52.958Z,51.83
2018-11-04T10:32:21.997Z,56.13
2018-11-04T10:34:50.954Z,55.27
2018-11-04T10:37:19.987Z,54.40
2018-11-04T10:39:48.853Z,51.67
2018-11-04T10:42:17.872Z,54.20
2018-11-04T10:44:46.849Z,52.70
2018-11-04T10:47:16.910Z,52.00
2018-11-04T10:49:47.209Z,58.03
2018-11-04T10:52:16.817Z,66.87
2018-11-04T10:54:45.939Z,57.27
2018-11-04T10:57:15.497Z,51.00
2018-11-04T10:59:44.488Z,55.60
2018-11-04T11:02:13.929Z,56.00
2018-11-04T11:04:43.160Z,50.17
2018-11-04T11:07:12.316Z,50.73
2018-11-04T11:09:41.928Z,53.77
2018-11-04T11:12:11.661Z,53.10
2018-11-04T11:14:41.325Z,51.33
2018-11-04T11:17:10.382Z,52.60
2018-11-04T11:19:39.575Z,53.73
2018-11-04T11:22:08.767Z,48.30
2018-11-04T11:24:38.032Z,51.87
2018-11-04T11:27:07.146Z,49.93
2018-11-04T11:29:36.216Z,51.23
2018-11-04T11:32:05.352Z,58.03
2018-11-04T11:34:35.438Z,50.07
2018-11-04T11:37:04.496Z,50.67
2018-11-04T11:39:33.481Z,51.83
2018-11-04T11:42:02.646Z,76.60
2018-11-04T11:44:31.610Z,49.40
2018-11-04T11:47:00.557Z,53.20
2018-11-04T11:49:29.555Z,48.87
2018-11-04T11:51:59.734Z,53.57
2018-11-04T11:54:28.882Z,51.63
2018-11-04T11:56:57.921Z,51.13
2018-11-04T11:59:27.163Z,52.63
2018-11-04T12:01:56.130Z,49.87
2018-11-04T12:04:25.255Z,49.00
2018-11-04T12:06:54.262Z,53.53
2018-11-04T12:09:23.248Z,50.07
2018-11-04T12:11:52.201Z,57.27
2018-11-04T12:14:21.329Z,55.73
2018-11-04T12:16:50.369Z,52.10
2018-11-04T12:19:20.375Z,54.23
2018-11-04T12:21:50.378Z,51.57
2018-11-04T12:24:19.470Z,49.40
2018-11-04T12:26:48.401Z,53.70
2018-11-04T12:29:17.622Z,55.10
2018-11-04T12:31:46.765Z,53.73
2018-11-04T12:34:15.710Z,53.87
2018-11-04T12:36:45.005Z,55.37
2018-11-04T12:39:14.243Z,51.10
2018-11-04T12:41:43.230Z,57.67
2018-11-04T12:44:12.230Z,48.13
2018-11-04T12:46:41.990Z,52.07
2018-11-04T12:49:11.172Z,57.03
2018-11-04T12:51:40.129Z,52.90
2018-11-04T12:54:09.082Z,56.50
2018-11-04T12:56:38.194Z,54.43
2018-11-04T12:59:07.322Z,48.53
2018-11-04T13:01:36.486Z,53.17
2018-11-04T13:04:05.481Z,59.70
2018-11-04T13:06:35.512Z,59.20
2018-11-04T13:09:06.780Z,55.57
2018-11-04T13:11:36.369Z,58.77
2018-11-04T13:14:05.519Z,56.20
2018-11-04T13:16:34.517Z,56.13
2018-11-04T13:19:03.625Z,52.60
2018-11-04T13:21:33.592Z,52.30
2018-11-04T13:24:02.633Z,55.57
2018-11-04T13:26:31.762Z,57.10
2018-11-04T13:29:00.783Z,53.30
2018-11-04T13:31:29.749Z,62.93
2018-11-04T13:33:58.771Z,63.77
2018-11-04T13:36:27.753Z,59.03
2018-11-04T13:38:56.760Z,57.03
2018-11-04T13:41:25.721Z,60.03
2018-11-04T13:43:54.718Z,53.60
2018-11-04T13:46:23.789Z,52.17
2018-11-04T13:48:52.935Z,52.50
2018-11-04T13:51:22.066Z,53.20
2018-11-04T13:53:51.006Z,52.23
2018-11-04T13:56:21.551Z,55.67
2018-11-04T13:58:51.686Z,58.17
2018-11-04T14:01:20.958Z,56.60
2018-11-04T14:03:50.027Z,54.33
2018-11-04T14:06:19.198Z,64.20
2018-11-04T14:08:48.354Z,52.47
2018-11-04T14:11:17.344Z,52.07
2018-11-04T14:13:46.311Z,54.53
2018-11-04T14:16:15.325Z,54.27
2018-11-04T14:18:44.365Z,60.07
2018-11-04T14:21:13.529Z,59.43
2018-11-04T14:23:42.566Z,61.60
2018-11-04T14:26:11.574Z,61.17
2018-11-04T14:28:40.880Z,62.90
2018-11-04T14:31:10.085Z,61.10
2018-11-04T14:33:39.173Z,57.43
2018-11-04T14:36:08.261Z,62.00
2018-11-04T14:38:37.237Z,58.37
2018-11-04T14:41:06.873Z,55.90
2018-11-04T14:43:36.010Z,60.20
2018-11-04T14:46:05.020Z,59.43
2018-11-04T14:48:33.985Z,56.67
2018-11-04T14:51:02.932Z,69.70
2018-11-04T14:53:31.861Z,59.03
2018-11-04T14:56:01.947Z,55.97
2018-11-04T14:58:31.062Z,56.17
2018-11-04T15:01:00.198Z,73.17
2018-11-04T15:03:29.286Z,56.50
2018-11-04T15:05:58.369Z,56.57
2018-11-04T15:08:28.542Z,58.43
2018-11-04T15:10:57.670Z,60.33
2018-11-04T15:13:26.853Z,63.13
2018-11-04T15:15:55.985Z,57.27
2018-11-04T15:18:25.225Z,64.90
2018-11-04T15:20:54.187Z,62.47
2018-11-04T15:23:23.498Z,64.67
2018-11-04T15:25:52.578Z,55.20
2018-11-04T15:28:21.650Z,61.60
2018-11-04T15:30:51.093Z,56.90
2018-11-04T15:33:20.083Z,61.87
2018-11-04T15:35:49.190Z,61.50
2018-11-04T15:38:18.165Z,59.30
2018-11-04T15:40:47.414Z,66.63
2018-11-04T15:43:16.627Z,58.47
2018-11-04T15:45:45.570Z,57.73
2018-11-04T15:48:14.573Z,65.73
2018-11-04T15:50:43.658Z,57.57
2018-11-04T15:53:12.819Z,61.53
2018-11-04T15:55:41.994Z,66.67
2018-11-04T15:58:11.208Z,63.33
2018-11-04T16:00:40.281Z,63.23
2018-11-04T16:03:09.502Z,61.30
2018-11-04T16:05:38.784Z,60.63
2018-11-04T16:08:07.845Z,66.60
2018-11-04T16:10:36.862Z,55.73
2018-11-04T16:13:06.084Z,65.20
2018-11-04T16:15:35.363Z,63.23
2018-11-04T16:18:04.740Z,59.57
2018-11-04T16:20:33.841Z,66.37
2018-11-04T16:23:04.197Z,63.03
2018-11-04T16:25:33.235Z,57.53
2018-11-04T16:28:02.175Z,63.00
2018-11-04T16:30:31.149Z,57.27
2018-11-04T16:33:00.189Z,62.93
2018-11-04T16:35:29.152Z,67.73
2018-11-04T16:37:58.367Z,58.67
2018-11-04T16:40:28.355Z,61.30
2018-11-04T16:42:57.490Z,66.33
2018-11-04T16:45:26.670Z,65.40
2018-11-04T16:47:55.696Z,61.97
2018-11-04T16:50:24.774Z,65.03
2018-11-04T16:52:53.745Z,66.03
2018-11-04T16:55:22.969Z,58.47
2018-11-04T16:57:52.137Z,69.63
2018-11-04T17:00:21.222Z,62.03
2018-11-04T17:02:51.333Z,58.47
2018-11-04T17:05:20.383Z,66.80
2018-11-04T17:07:49.450Z,58.83
2018-11-04T17:10:18.607Z,57.57
2018-11-04T17:12:47.905Z,60.10
2018-11-04T17:15:16.974Z,60.27
2018-11-04T17:17:46.063Z,64.70
2018-11-04T17:20:17.662Z,64.60
2018-11-04T17:22:46.939Z,65.07
2018-11-04T17:25:15.997Z,60.17
2018-11-04T17:27:45.246Z,58.07
2018-11-04T17:30:15.992Z,69.17
2018-11-04T17:32:45.259Z,59.00
2018-11-04T17:35:15.139Z,58.67
2018-11-04T17:37:44.665Z,58.77
2018-11-04T17:40:14.627Z,55.17
2018-11-04T17:42:44.513Z,61.57
2018-11-04T17:45:14.893Z,60.60
2018-11-04T17:47:44.091Z,59.07
2018-11-04T17:50:16.531Z,59.93
2018-11-04T17:52:45.750Z,65.57
2018-11-04T17:55:14.959Z,64.20
2018-11-04T17:57:46.017Z,65.77
2018-11-04T18:00:16.229Z,65.23
2018-11-04T18:02:46.310Z,68.70
2018-11-04T18:05:15.419Z,53.43
2018-11-04T18:07:44.717Z,60.60
2018-11-04T18:10:14.606Z,59.53
2018-11-04T18:12:43.919Z,60.17
2018-11-04T18:15:14.788Z,61.87
2018-11-04T18:17:43.961Z,59.53
2018-11-04T18:20:13.242Z,66.77
2018-11-04T18:22:42.359Z,86.23
2018-11-04T18:25:12.164Z,68.37
2018-11-04T18:27:41.213Z,67.83
2018-11-04T18:30:12.315Z,61.97
2018-11-04T18:32:41.450Z,64.63
2018-11-04T18:35:10.978Z,68.03
2018-11-04T18:37:40.161Z,66.70
2018-11-04T18:40:11.437Z,68.73
2018-11-04T18:42:40.535Z,67.53
2018-11-04T18:45:10.742Z,69.23
2018-11-04T18:47:39.890Z,66.53
2018-11-04T18:50:09.839Z,70.20
2018-11-04T18:52:39.071Z,71.63
2018-11-04T18:55:08.946Z,66.73
2018-11-04T18:57:38.024Z,67.73
2018-11-04T19:00:08.834Z,62.80
2018-11-04T19:02:37.858Z,64.77
2018-11-04T19:05:07.303Z,67.20
2018-11-04T19:07:36.554Z,61.80
2018-11-04T19:10:07.274Z,70.03
2018-11-04T19:12:36.299Z,72.63
2018-11-04T19:15:05.549Z,67.73
2018-11-04T19:17:34.551Z,64.10
2018-11-04T19:20:03.806Z,80.33
2018-11-04T19:22:32.838Z,86.90
2018-11-04T19:25:01.912Z,73.50
2018-11-04T19:27:30.862Z,70.33
2018-11-04T19:29:59.868Z,74.77
2018-11-04T19:32:28.895Z,76.57
2018-11-04T19:34:57.970Z,76.33
2018-11-04T19:37:27.174Z,81.33
2018-11-04T19:39:56.134Z,76.03
2018-11-04T19:42:25.172Z,90.13
2018-11-04T19:44:54.070Z,82.10
2018-11-04T19:47:23.087Z,86.03
2018-11-04T19:49:52.105Z,71.50
2018-11-04T19:52:21.213Z,72.70
2018-11-04T19:54:50.206Z,63.23
2018-11-04T19:57:19.231Z,65.40
2018-11-04T19:59:48.211Z,105.27
2018-11-04T20:02:17.158Z,85.23
2018-11-04T20:04:46.250Z,75.40
2018-11-04T20:07:15.336Z,68.50
2018-11-04T20:09:44.498Z,76.47
2018-11-04T20:12:19.054Z,71.63
2018-11-04T20:14:48.002Z,72.57
2018-11-04T20:17:16.992Z,70.93
2018-11-04T20:19:51.270Z,69.20
2018-11-04T20:22:20.202Z,76.40
2018-11-04T20:24:54.670Z,61.60
2018-11-04T20:27:23.639Z,72.33
2018-11-04T20:29:52.600Z,64.73
2018-11-04T20:32:27.182Z,71.23
2018-11-04T20:34:56.288Z,62.07
2018-11-04T20:37:25.334Z,60.90
2018-11-04T20:39:59.693Z,62.27
2018-11-04T20:42:28.823Z,58.30
2018-11-04T20:44:57.974Z,62.03
2018-11-04T20:47:32.430Z,63.40
2018-11-04T20:50:06.848Z,61.00
2018-11-04T20:52:35.863Z,62.37
2018-11-04T20:55:06.268Z,58.30
2018-11-04T20:57:40.158Z,61.90
2018-11-04T21:00:11.449Z,59.33
2018-11-04T21:02:40.648Z,60.87
2018-11-04T21:05:09.381Z,55.60
2018-11-04T21:07:38.442Z,62.27
2018-11-04T21:10:08.912Z,61.67
2018-11-04T21:12:38.033Z,60.00
2018-11-04T21:15:07.131Z,57.90
2018-11-04T21:17:37.165Z,58.77
2018-11-04T21:20:07.182Z,63.13
2018-11-04T21:22:36.157Z,52.97
2018-11-04T21:25:05.949Z,54.33
2018-11-04T21:27:35.013Z,54.27
2018-11-04T21:30:04.946Z,54.70
2018-11-04T21:32:33.876Z,59.20
2018-11-04T21:35:03.095Z,60.07
2018-11-04T21:37:32.086Z,63.00
2018-11-04T21:40:00.963Z,52.97
2018-11-04T21:42:30.154Z,60.20
2018-11-04T21:44:58.942Z,63.23
2018-11-04T21:47:27.882Z,69.13
2018-11-04T21:49:56.950Z,74.50
2018-11-04T21:52:25.878Z,69.83
2018-11-04T21:54:54.847Z,73.33
2018-11-04T21:57:23.798Z,87.00
2018-11-04T21:59:52.798Z,74.97
2018-11-04T22:02:22.958Z,69.10
2018-11-04T22:04:52.131Z,77.73
2018-11-04T22:07:20.915Z,74.93
2018-11-04T22:09:49.905Z,69.07
2018-11-04T22:12:18.906Z,62.40
2018-11-04T22:14:47.878Z,69.87
2018-11-04T22:17:16.933Z,70.03
2018-11-04T22:19:45.898Z,61.00
2018-11-04T22:22:15.153Z,58.20
2018-11-04T22:24:44.230Z,56.17
2018-11-04T22:27:13.317Z,65.10
2018-11-04T22:29:42.423Z,54.00
2018-11-04T22:32:11.525Z,63.80
2018-11-04T22:34:40.622Z,76.67
2018-11-04T22:37:09.719Z,78.67
2018-11-04T22:39:38.711Z,88.10
2018-11-04T22:42:07.725Z,82.00
2018-11-04T22:44:36.609Z,89.50
2018-11-04T22:47:05.710Z,82.73
2018-11-04T22:49:34.686Z,90.30
2018-11-04T22:52:03.611Z,82.57
2018-11-04T22:54:32.621Z,85.17
2018-11-04T22:57:01.647Z,84.30
2018-11-04T22:59:30.667Z,87.63
2018-11-04T23:01:59.671Z,82.27
2018-11-04T23:04:33.958Z,83.50
2018-11-04T23:07:03.003Z,70.07
2018-11-04T23:09:32.026Z,68.27
2018-11-04T23:12:00.974Z,77.10
2018-11-04T23:14:29.925Z,66.03
2018-11-04T23:17:00.003Z,62.67
2018-11-04T23:19:28.980Z,75.97
2018-11-04T23:21:57.958Z,74.30
2018-11-04T23:24:26.940Z,96.57
2018-11-04T23:26:55.959Z,97.77
2018-11-04T23:29:24.870Z,80.93
2018-11-04T23:31:53.862Z,72.73
2018-11-04T23:34:22.846Z,86.63
2018-11-04T23:36:51.859Z,83.57
2018-11-04T23:39:20.825Z,81.33
2018-11-04T23:41:49.851Z,85.57
2018-11-04T23:44:18.822Z,85.40
2018-11-04T23:46:47.766Z,93.77
2018-11-04T23:49:16.742Z,99.53
2018-11-04T23:51:45.672Z,86.37
2018-11-04T23:54:14.682Z,98.07
2018-11-04T23:56:43.658Z,100.90
2018-11-04T23:59:12.632Z,82.07
